Time;durP1;ratioP1;P1;durP2;ratioP2;P2;SDS_P1;SDS_P2;PMS_P1;PMS_P2;Temp;Humidity;BMP_temperature;BMP_pressure;BME280_temperature;BME280_humidity;BME280_pressure;Samples;Min_cycle;Max_cycle;Signal;HPM_P1;HPM_P2
2023/12/03 00:00:47;;;;;;;27.88;16.10;;;;;-1.90;98818.00;;;;4900008;29;20047;-64
2023/12/03 00:03:14;;;;;;;30.45;16.80;;;;;-1.90;98830.00;;;;4900190;29;20073;-66
2023/12/03 00:05:41;;;;;;;29.25;16.10;;;;;-1.90;98814.00;;;;4899943;29;20131;-62
2023/12/03 00:08:08;;;;;;;26.20;15.82;;;;;-1.90;98816.00;;;;4899791;29;20073;-61
2023/12/03 00:10:34;;;;;;;29.85;16.75;;;;;-1.90;98827.00;;;;4898430;29;20088;-63
2023/12/03 00:13:01;;;;;;;26.25;16.25;;;;;-1.90;98824.00;;;;4899887;29;20049;-61
2023/12/03 00:15:28;;;;;;;26.55;15.93;;;;;-1.80;98827.00;;;;4899267;29;20053;-62
2023/12/03 00:17:54;;;;;;;26.45;16.25;;;;;-1.80;98817.00;;;;4898620;29;20112;-64
2023/12/03 00:20:21;;;;;;;25.20;14.85;;;;;-1.90;98826.00;;;;4899890;29;20405;-62
2023/12/03 00:22:49;;;;;;;26.52;15.65;;;;;-1.90;98826.00;;;;4898769;29;20066;-62
2023/12/03 00:25:16;;;;;;;29.55;15.68;;;;;-1.90;98822.00;;;;4897500;29;20104;-62
2023/12/03 00:27:43;;;;;;;27.02;17.30;;;;;-1.90;98815.00;;;;4899623;29;20057;-61
2023/12/03 00:30:10;;;;;;;29.80;15.88;;;;;-1.90;98825.00;;;;4899710;29;20064;-60
2023/12/03 00:32:37;;;;;;;27.73;16.48;;;;;-1.90;98828.00;;;;4898486;29;20044;-61
2023/12/03 00:35:04;;;;;;;27.90;16.50;;;;;-1.80;98821.00;;;;4898795;29;20052;-62
2023/12/03 00:37:31;;;;;;;27.60;15.55;;;;;-1.90;98825.00;;;;4898474;29;20052;-63
2023/12/03 00:39:57;;;;;;;27.90;15.95;;;;;-1.90;98823.00;;;;4914728;29;20125;-63
2023/12/03 00:42:24;;;;;;;30.63;14.98;;;;;-2.00;98821.00;;;;4916697;29;20041;-64
2023/12/03 00:44:50;;;;;;;24.08;13.52;;;;;-2.20;98812.00;;;;4914986;29;20055;-62
2023/12/03 00:47:17;;;;;;;26.55;15.68;;;;;-2.40;98812.00;;;;4916020;29;20048;-61
2023/12/03 00:49:44;;;;;;;26.15;15.57;;;;;-2.50;98816.00;;;;4915973;29;20056;-63
2023/12/03 00:52:11;;;;;;;27.38;15.50;;;;;-2.50;98815.00;;;;4917164;29;20121;-63
2023/12/03 00:54:38;;;;;;;24.48;14.30;;;;;-2.50;98818.00;;;;4915976;29;20061;-62
2023/12/03 00:57:04;;;;;;;25.38;15.40;;;;;-2.50;98826.00;;;;4918120;29;20063;-64
2023/12/03 00:59:31;;;;;;;25.50;14.70;;;;;-2.50;98821.00;;;;4918690;29;20076;-63
2023/12/03 01:01:57;;;;;;;26.08;14.73;;;;;-2.40;98828.00;;;;4918226;29;20056;-62
2023/12/03 01:04:24;;;;;;;26.65;16.05;;;;;-2.30;98836.00;;;;4918270;29;20048;-62
2023/12/03 01:06:51;;;;;;;26.35;14.70;;;;;-2.30;98831.00;;;;4918533;29;20056;-62
2023/12/03 01:09:18;;;;;;;24.83;14.02;;;;;-2.50;98831.00;;;;4918410;29;20104;-62
2023/12/03 01:11:44;;;;;;;26.50;14.52;;;;;-2.60;98837.00;;;;4917651;29;20060;-62
2023/12/03 01:14:11;;;;;;;26.42;14.57;;;;;-2.70;98836.00;;;;4917199;29;20052;-63
2023/12/03 01:16:38;;;;;;;25.45;14.52;;;;;-2.80;98838.00;;;;4918766;29;20057;-63
2023/12/03 01:19:04;;;;;;;23.58;14.10;;;;;-2.80;98837.00;;;;4918688;29;20048;-62
2023/12/03 01:21:31;;;;;;;25.60;16.02;;;;;-2.90;98835.00;;;;4918092;29;20123;-63
2023/12/03 01:23:58;;;;;;;30.60;15.02;;;;;-2.90;98848.00;;;;4918018;29;20053;-63
2023/12/03 01:26:24;;;;;;;29.33;15.70;;;;;-2.90;98847.00;;;;4915495;29;20068;-63
2023/12/03 01:28:52;;;;;;;30.08;15.43;;;;;-2.90;98844.00;;;;4900940;29;20093;-64
2023/12/03 01:31:19;;;;;;;28.70;17.23;;;;;-2.90;98851.00;;;;4898458;29;20055;-65
2023/12/03 01:33:46;;;;;;;32.22;18.05;;;;;-2.70;98859.00;;;;4899369;29;20072;-63
2023/12/03 01:36:13;;;;;;;32.10;17.65;;;;;-2.60;98860.00;;;;4897807;29;20064;-63
2023/12/03 01:38:40;;;;;;;31.80;18.58;;;;;-2.60;98856.00;;;;4899112;29;20495;-63
2023/12/03 01:41:07;;;;;;;32.42;19.35;;;;;-2.50;98871.00;;;;4907087;29;20060;-63
2023/12/03 01:43:46;;;;;;;33.80;18.10;;;;;-2.50;98863.00;;;;4900759;29;20119;-63
2023/12/03 01:46:13;;;;;;;35.67;18.92;;;;;-2.40;98871.00;;;;4897587;29;20068;-64
2023/12/03 01:48:40;;;;;;;32.20;17.90;;;;;-2.40;98876.00;;;;4896723;29;20148;-63
2023/12/03 01:51:07;;;;;;;34.10;18.48;;;;;-2.40;98881.00;;;;4898563;29;20052;-64
2023/12/03 01:53:35;;;;;;;32.78;18.67;;;;;-2.40;98872.00;;;;4896682;29;20053;-63
2023/12/03 01:56:02;;;;;;;34.00;17.63;;;;;-2.40;98870.00;;;;4897070;29;20040;-63
2023/12/03 01:58:28;;;;;;;34.22;19.70;;;;;-2.30;98888.00;;;;4897281;29;20052;-62
2023/12/03 02:00:55;;;;;;;33.47;19.27;;;;;-2.30;98881.00;;;;4896922;29;20513;-62
2023/12/03 02:03:22;;;;;;;38.35;20.50;;;;;-2.20;98900.00;;;;4896760;29;20123;-65
2023/12/03 02:05:54;;;;;;;39.03;20.63;;;;;-2.20;98889.00;;;;4898106;29;20049;-63
2023/12/03 02:08:20;;;;;;;31.08;18.63;;;;;-2.10;98897.00;;;;4896917;29;20060;-63
2023/12/03 02:10:47;;;;;;;34.55;18.95;;;;;-2.00;98892.00;;;;4896983;29;20132;-63
2023/12/03 02:13:14;;;;;;;34.50;19.13;;;;;-2.00;98893.00;;;;4897021;29;20049;-62
2023/12/03 02:15:41;;;;;;;34.83;18.50;;;;;-1.90;98887.00;;;;4896250;29;20048;-63
2023/12/03 02:18:07;;;;;;;35.58;20.05;;;;;-1.80;98890.00;;;;4897185;29;20458;-63
2023/12/03 02:20:34;;;;;;;36.63;19.25;;;;;-1.70;98902.00;;;;4897140;29;20055;-63
2023/12/03 02:23:02;;;;;;;35.13;19.58;;;;;-1.60;98908.00;;;;4897887;29;20048;-62
2023/12/03 02:25:28;;;;;;;31.13;17.75;;;;;-1.50;98904.00;;;;4897287;29;20135;-61
2023/12/03 02:27:55;;;;;;;32.38;19.08;;;;;-1.50;98902.00;;;;4912416;29;20052;-61
2023/12/03 02:30:22;;;;;;;33.75;19.63;;;;;-1.50;98909.00;;;;4896330;29;20068;-62
2023/12/03 02:32:49;;;;;;;34.30;18.77;;;;;-1.40;98899.00;;;;4896564;29;20052;-63
2023/12/03 02:35:16;;;;;;;38.80;20.95;;;;;-1.40;98915.00;;;;4897267;29;20463;-61
2023/12/03 02:37:42;;;;;;;37.30;20.10;;;;;-1.40;98906.00;;;;4896817;29;20048;-62
2023/12/03 02:40:09;;;;;;;36.03;19.50;;;;;-1.40;98905.00;;;;4897515;29;20452;-63
2023/12/03 02:42:36;;;;;;;35.38;19.98;;;;;-1.30;98918.00;;;;4897671;29;20127;-63
2023/12/03 02:45:03;;;;;;;32.72;19.35;;;;;-1.30;98909.00;;;;4880739;29;20053;-62
2023/12/03 02:47:30;;;;;;;38.53;20.88;;;;;-1.30;98909.00;;;;4896741;29;20104;-62
2023/12/03 02:49:56;;;;;;;33.70;19.45;;;;;-1.20;98908.00;;;;4896556;29;20048;-62
2023/12/03 02:52:23;;;;;;;36.42;20.15;;;;;-1.20;98902.00;;;;4896599;29;20339;-63
2023/12/03 02:54:49;;;;;;;35.53;20.60;;;;;-1.10;98903.00;;;;4896346;29;20127;-63
2023/12/03 02:57:16;;;;;;;36.72;19.10;;;;;-1.20;98900.00;;;;4896393;29;20053;-63
2023/12/03 02:59:43;;;;;;;34.67;18.75;;;;;-1.20;98903.00;;;;4897407;29;20406;-63
2023/12/03 03:02:09;;;;;;;35.42;19.95;;;;;-1.20;98909.00;;;;4896429;29;20084;-62
2023/12/03 03:04:36;;;;;;;37.35;20.58;;;;;-1.20;98909.00;;;;4896028;29;20459;-63
2023/12/03 03:07:03;;;;;;;35.05;20.67;;;;;-1.10;98915.00;;;;4897382;29;20050;-63
2023/12/03 03:09:29;;;;;;;35.20;18.83;;;;;-1.00;98918.00;;;;4896015;29;20217;-63
2023/12/03 03:11:57;;;;;;;35.22;19.70;;;;;-1.00;98925.00;;;;4896122;29;20092;-62
2023/12/03 03:14:24;;;;;;;37.35;20.23;;;;;-0.90;98919.00;;;;4896797;29;20127;-61
2023/12/03 03:16:51;;;;;;;40.25;20.52;;;;;-0.90;98922.00;;;;4896145;29;20510;-62
2023/12/03 03:19:17;;;;;;;35.03;19.73;;;;;-0.90;98925.00;;;;4895869;29;20441;-62
2023/12/03 03:21:44;;;;;;;37.80;19.70;;;;;-0.90;98926.00;;;;4895896;29;20088;-61
2023/12/03 03:24:11;;;;;;;33.22;19.60;;;;;-0.90;98921.00;;;;4895358;29;20063;-62
2023/12/03 03:26:39;;;;;;;34.47;19.95;;;;;-0.90;98925.00;;;;4895699;29;20060;-62
2023/12/03 03:29:06;;;;;;;39.65;21.45;;;;;-0.90;98926.00;;;;4896182;29;20056;-62
2023/12/03 03:31:32;;;;;;;35.85;20.63;;;;;-0.90;98932.00;;;;4895825;29;20076;-63
2023/12/03 03:33:59;;;;;;;37.58;20.98;;;;;-0.90;98925.00;;;;4896728;29;20108;-62
2023/12/03 03:36:26;;;;;;;35.42;18.95;;;;;-0.90;98923.00;;;;4895690;29;20139;-62
2023/12/03 03:38:53;;;;;;;34.47;19.05;;;;;-0.90;98929.00;;;;4895909;29;20143;-62
2023/12/03 03:41:19;;;;;;;35.53;19.98;;;;;-0.90;98932.00;;;;4897536;29;20558;-63
2023/12/03 03:43:46;;;;;;;35.78;19.20;;;;;-0.80;98930.00;;;;4899227;29;20100;-63
2023/12/03 03:46:12;;;;;;;35.58;19.65;;;;;-0.80;98927.00;;;;4898343;29;20076;-62
2023/12/03 03:48:39;;;;;;;36.25;18.95;;;;;-0.80;98933.00;;;;4899127;29;20089;-63
2023/12/03 03:51:06;;;;;;;34.33;18.77;;;;;-0.70;98936.00;;;;4899153;29;20104;-63
2023/12/03 03:53:33;;;;;;;32.97;18.40;;;;;-0.60;98940.00;;;;4898288;29;20072;-63
2023/12/03 03:56:06;;;;;;;33.38;18.52;;;;;-0.60;98948.00;;;;4897766;29;20478;-61
2023/12/03 03:58:33;;;;;;;34.40;18.92;;;;;-0.60;98945.00;;;;4899526;29;20048;-62
2023/12/03 04:01:04;;;;;;;35.38;18.85;;;;;-0.60;98951.00;;;;4898708;29;20143;-62
2023/12/03 04:03:31;;;;;;;33.30;18.48;;;;;-0.60;98953.00;;;;4897402;29;20127;-62
2023/12/03 04:06:04;;;;;;;34.92;19.33;;;;;-0.60;98952.00;;;;4896602;29;20080;-62
2023/12/03 04:08:31;;;;;;;32.55;18.67;;;;;-0.50;98958.00;;;;4895357;29;20056;-63
2023/12/03 04:11:02;;;;;;;33.28;18.05;;;;;-0.50;98953.00;;;;4895523;29;20049;-62
2023/12/03 04:13:28;;;;;;;35.28;19.88;;;;;-0.60;98957.00;;;;4899035;29;20132;-63
2023/12/03 04:15:55;;;;;;;35.08;19.38;;;;;-0.60;98961.00;;;;4898695;29;20052;-62
2023/12/03 04:18:23;;;;;;;36.15;19.83;;;;;-0.60;98956.00;;;;4898758;29;20088;-63
2023/12/03 04:20:50;;;;;;;37.63;19.83;;;;;-0.50;98959.00;;;;4898524;29;20333;-63
2023/12/03 04:23:16;;;;;;;33.95;19.52;;;;;-0.50;98962.00;;;;4899818;29;20049;-62
2023/12/03 04:25:43;;;;;;;37.42;20.08;;;;;-0.40;98964.00;;;;4882567;29;20053;-63
2023/12/03 04:28:10;;;;;;;34.20;18.80;;;;;-0.40;98963.00;;;;4899926;29;20040;-62
2023/12/03 04:30:36;;;;;;;37.50;19.27;;;;;-0.40;98969.00;;;;4898722;29;20045;-63
2023/12/03 04:33:03;;;;;;;33.55;19.25;;;;;-0.40;98978.00;;;;4898442;29;20100;-63
2023/12/03 04:35:29;;;;;;;36.65;19.35;;;;;-0.40;98969.00;;;;4897881;29;20090;-62
2023/12/03 04:37:56;;;;;;;36.17;19.67;;;;;-0.40;98973.00;;;;4898282;29;20503;-62
2023/12/03 04:40:23;;;;;;;37.15;19.95;;;;;-0.30;98966.00;;;;4898207;29;20475;-62
2023/12/03 04:42:49;;;;;;;35.80;20.35;;;;;-0.30;98973.00;;;;4899617;29;20052;-64
2023/12/03 04:45:16;;;;;;;38.00;19.92;;;;;-0.30;98961.00;;;;4899080;29;20079;-62
2023/12/03 04:47:42;;;;;;;33.00;19.17;;;;;-0.20;98984.00;;;;4899539;29;20489;-63
2023/12/03 04:50:09;;;;;;;36.13;19.17;;;;;-0.20;98973.00;;;;4898264;29;20167;-63
2023/12/03 04:52:36;;;;;;;31.05;18.67;;;;;-0.20;98970.00;;;;4899574;29;20517;-62
2023/12/03 04:55:02;;;;;;;33.33;18.38;;;;;-0.20;98981.00;;;;4897692;29;20052;-62
2023/12/03 04:57:29;;;;;;;32.15;17.65;;;;;-0.20;98977.00;;;;4898116;29;20060;-62
2023/12/03 04:59:56;;;;;;;33.38;18.05;;;;;-0.20;98979.00;;;;4897858;29;20529;-63
2023/12/03 05:02:22;;;;;;;31.00;18.38;;;;;-0.20;98962.00;;;;4899250;29;20471;-62
2023/12/03 05:04:49;;;;;;;34.13;18.77;;;;;-0.30;98967.00;;;;4898780;29;20403;-62
2023/12/03 05:07:15;;;;;;;30.85;17.52;;;;;-0.20;98966.00;;;;4898888;29;20055;-63
2023/12/03 05:09:42;;;;;;;30.17;16.92;;;;;-0.30;98966.00;;;;4897944;29;20052;-63
2023/12/03 05:12:08;;;;;;;33.47;19.17;;;;;-0.30;98963.00;;;;4899003;29;20226;-62
2023/12/03 05:14:37;;;;;;;32.88;17.83;;;;;-0.30;98965.00;;;;4898235;29;20527;-63
2023/12/03 05:17:03;;;;;;;32.70;18.40;;;;;-0.30;98968.00;;;;4897251;29;20175;-63
2023/12/03 05:19:30;;;;;;;32.70;17.90;;;;;-0.20;98969.00;;;;4897567;29;20048;-64
2023/12/03 05:21:57;;;;;;;33.30;18.15;;;;;-0.20;98961.00;;;;4897230;29;20084;-64
2023/12/03 05:24:23;;;;;;;36.00;19.98;;;;;-0.20;98970.00;;;;4897052;29;20045;-64
2023/12/03 05:26:50;;;;;;;35.65;20.50;;;;;-0.20;98978.00;;;;4898507;29;20101;-65
2023/12/03 05:29:17;;;;;;;30.77;18.08;;;;;-0.20;98981.00;;;;4897247;29;20044;-64
2023/12/03 05:31:45;;;;;;;32.40;17.40;;;;;-0.20;98977.00;;;;4898519;29;20040;-64
2023/12/03 05:34:11;;;;;;;29.83;16.70;;;;;-0.20;98977.00;;;;4898088;29;20076;-65
2023/12/03 05:36:38;;;;;;;30.23;16.83;;;;;-0.20;98982.00;;;;4898307;29;20059;-64
2023/12/03 05:39:05;;;;;;;30.13;18.00;;;;;-0.30;98979.00;;;;4897241;29;20052;-64
2023/12/03 05:41:38;;;;;;;32.47;18.80;;;;;-0.20;98991.00;;;;4898247;29;20047;-64
2023/12/03 05:44:05;;;;;;;34.83;19.10;;;;;-0.10;98993.00;;;;4896391;29;20076;-64
2023/12/03 05:46:31;;;;;;;31.27;17.23;;;;;-0.10;98986.00;;;;4898108;29;20052;-64
2023/12/03 05:48:58;;;;;;;32.30;17.50;;;;;-0.10;98996.00;;;;4898143;29;20127;-64
2023/12/03 05:51:25;;;;;;;31.15;17.48;;;;;-0.20;98994.00;;;;4898160;29;20120;-64
2023/12/03 05:53:51;;;;;;;32.50;16.80;;;;;-0.20;99002.00;;;;4896433;29;20052;-64
2023/12/03 05:56:18;;;;;;;30.98;17.73;;;;;-0.20;98990.00;;;;4897835;29;20056;-64
2023/12/03 05:58:44;;;;;;;31.30;17.23;;;;;-0.20;98997.00;;;;4897780;29;20469;-65
2023/12/03 06:01:20;;;;;;;29.90;16.73;;;;;-0.20;98991.00;;;;4896652;29;20055;-62
2023/12/03 06:03:48;;;;;;;33.28;17.83;;;;;-0.10;98999.00;;;;4897345;29;20097;-63
2023/12/03 06:06:16;;;;;;;33.08;17.60;;;;;-0.10;99003.00;;;;4896633;29;20049;-63
2023/12/03 06:08:43;;;;;;;31.85;16.75;;;;;-0.10;99015.00;;;;4897882;29;20048;-62
2023/12/03 06:11:10;;;;;;;32.55;17.55;;;;;-0.20;98997.00;;;;4896628;29;20056;-64
2023/12/03 06:13:37;;;;;;;30.80;16.58;;;;;-0.10;99012.00;;;;4895951;29;20045;-62
2023/12/03 06:16:04;;;;;;;31.00;17.48;;;;;-0.10;99010.00;;;;4896343;29;20048;-63
2023/12/03 06:18:30;;;;;;;34.50;18.77;;;;;-0.10;99007.00;;;;4896859;29;20147;-62
2023/12/03 06:20:57;;;;;;;32.78;16.40;;;;;-0.10;99012.00;;;;4896480;29;20044;-63
2023/12/03 06:23:24;;;;;;;32.63;17.00;;;;;-0.10;99007.00;;;;4895881;29;20064;-65
2023/12/03 06:25:50;;;;;;;31.33;16.42;;;;;-0.20;99021.00;;;;4897435;29;20092;-62
2023/12/03 06:28:17;;;;;;;30.15;17.17;;;;;-0.20;99018.00;;;;4896487;29;20471;-62
2023/12/03 06:30:44;;;;;;;30.67;17.17;;;;;-0.20;99008.00;;;;4896464;29;20096;-62
2023/12/03 06:33:11;;;;;;;30.77;16.77;;;;;-0.20;99012.00;;;;4896249;29;20053;-63
2023/12/03 06:35:38;;;;;;;31.27;16.80;;;;;-0.20;99001.00;;;;4911031;29;20495;-62
2023/12/03 06:38:05;;;;;;;28.90;16.45;;;;;-0.20;99009.00;;;;4895982;29;20055;-63
2023/12/03 06:40:31;;;;;;;32.80;17.70;;;;;-0.20;99008.00;;;;4896345;29;20079;-62
2023/12/03 06:42:58;;;;;;;30.90;17.15;;;;;-0.20;99001.00;;;;4896024;29;20048;-62
2023/12/03 06:45:24;;;;;;;32.17;17.02;;;;;-0.20;98996.00;;;;4895356;29;20442;-62
2023/12/03 06:47:51;;;;;;;31.42;16.70;;;;;-0.20;98998.00;;;;4896000;29;20048;-63
2023/12/03 06:50:17;;;;;;;30.63;17.33;;;;;-0.20;99006.00;;;;4897239;29;20124;-61
2023/12/03 06:52:44;;;;;;;31.90;17.70;;;;;-0.20;99004.00;;;;4897079;29;20132;-62
2023/12/03 06:55:12;;;;;;;31.25;17.38;;;;;-0.20;99005.00;;;;4896392;29;20132;-63
2023/12/03 06:57:38;;;;;;;30.52;16.95;;;;;-0.20;99007.00;;;;4897038;29;20091;-63
2023/12/03 07:00:09;;;;;;;27.67;15.80;;;;;-0.20;99014.00;;;;4895763;29;20048;-63
2023/12/03 07:02:36;;;;;;;30.45;16.50;;;;;-0.20;99012.00;;;;4895916;29;20483;-63
2023/12/03 07:05:04;;;;;;;33.30;17.60;;;;;-0.10;99020.00;;;;4896237;29;20069;-63
2023/12/03 07:07:30;;;;;;;29.63;16.25;;;;;-0.10;99020.00;;;;4895441;29;20475;-62
2023/12/03 07:09:57;;;;;;;29.23;16.70;;;;;-0.10;99019.00;;;;4895750;29;20139;-63
2023/12/03 07:12:24;;;;;;;32.15;17.38;;;;;-0.10;99027.00;;;;4896854;29;20554;-62
2023/12/03 07:14:50;;;;;;;31.33;16.83;;;;;-0.10;99024.00;;;;4896454;29;20144;-61
2023/12/03 07:17:17;;;;;;;36.72;18.27;;;;;-0.10;99020.00;;;;4896878;29;20087;-61
2023/12/03 07:19:45;;;;;;;30.85;16.90;;;;;-0.10;99023.00;;;;4897012;29;20044;-62
2023/12/03 07:22:12;;;;;;;32.50;18.55;;;;;-0.10;99032.00;;;;4895620;29;20044;-62
2023/12/03 07:24:39;;;;;;;30.90;16.77;;;;;-0.10;99030.00;;;;4896684;29;20063;-60
2023/12/03 07:27:06;;;;;;;28.42;15.88;;;;;-0.10;99043.00;;;;4895721;29;20084;-62
2023/12/03 07:29:33;;;;;;;31.48;17.15;;;;;-0.20;99052.00;;;;4895805;29;20447;-62
2023/12/03 07:32:01;;;;;;;33.22;17.85;;;;;-0.20;99058.00;;;;4896832;29;20069;-61
2023/12/03 07:34:27;;;;;;;31.23;16.60;;;;;-0.30;99068.00;;;;4896175;29;20044;-62
2023/12/03 07:36:54;;;;;;;29.70;15.73;;;;;-0.30;99075.00;;;;4895716;29;20049;-63
2023/12/03 07:39:23;;;;;;;30.45;15.65;;;;;-0.40;99078.00;;;;4895587;29;20060;-63
2023/12/03 07:41:51;;;;;;;31.30;16.30;;;;;-0.40;99083.00;;;;4896582;29;20052;-63
2023/12/03 07:44:18;;;;;;;33.35;17.55;;;;;-0.40;99087.00;;;;4896148;29;20059;-63
2023/12/03 07:46:45;;;;;;;35.03;17.85;;;;;-0.30;99087.00;;;;4896891;29;20132;-65
2023/12/03 07:49:12;;;;;;;30.65;16.73;;;;;-0.30;99086.00;;;;4898966;29;20059;-63
2023/12/03 07:51:39;;;;;;;31.70;16.67;;;;;-0.30;99096.00;;;;4900191;29;20047;-63
2023/12/03 07:54:06;;;;;;;25.00;15.23;;;;;-0.30;99084.00;;;;4898520;29;20052;-66
2023/12/03 07:56:34;;;;;;;29.33;16.25;;;;;-0.30;99090.00;;;;4900045;29;20127;-62
2023/12/03 07:59:01;;;;;;;28.48;16.25;;;;;-0.20;99088.00;;;;4900119;29;20139;-63
2023/12/03 08:01:28;;;;;;;25.95;14.70;;;;;-0.20;99086.00;;;;4898708;29;20475;-64
2023/12/03 08:03:55;;;;;;;31.02;16.77;;;;;-0.10;99090.00;;;;4898353;29;20057;-62
2023/12/03 08:06:21;;;;;;;28.35;16.05;;;;;-0.10;99092.00;;;;4898663;29;20048;-63
2023/12/03 08:08:48;;;;;;;29.35;16.77;;;;;-0.10;99092.00;;;;4898699;29;20143;-63
2023/12/03 08:11:15;;;;;;;31.35;16.50;;;;;-0.10;99091.00;;;;4899804;29;20045;-62
2023/12/03 08:13:44;;;;;;;28.80;15.98;;;;;-0.10;99084.00;;;;4899250;29;20048;-63
2023/12/03 08:16:10;;;;;;;30.05;15.95;;;;;-0.10;99084.00;;;;4898308;29;20054;-63
2023/12/03 08:18:37;;;;;;;28.38;16.60;;;;;0.00;99074.00;;;;4899861;29;20120;-62
2023/12/03 08:21:04;;;;;;;27.17;15.80;;;;;0.10;99082.00;;;;4899749;29;20417;-64
2023/12/03 08:23:32;;;;;;;28.73;15.82;;;;;0.10;99080.00;;;;4899081;29;20048;-61
2023/12/03 08:25:59;;;;;;;28.65;15.73;;;;;0.20;99080.00;;;;4898324;29;20052;-64
2023/12/03 08:28:25;;;;;;;27.45;15.73;;;;;0.20;99078.00;;;;4899502;29;20068;-61
2023/12/03 08:30:53;;;;;;;28.92;15.80;;;;;0.20;99066.00;;;;4898380;29;20205;-62
2023/12/03 08:33:19;;;;;;;28.98;16.45;;;;;0.30;99075.00;;;;4899511;29;20631;-62
2023/12/03 08:35:46;;;;;;;27.40;15.25;;;;;0.40;99080.00;;;;4899277;29;20052;-61
2023/12/03 08:38:13;;;;;;;26.25;15.48;;;;;0.40;99077.00;;;;4899706;29;20062;-61
2023/12/03 08:40:39;;;;;;;29.13;15.60;;;;;0.40;99078.00;;;;4899600;29;20100;-61
2023/12/03 08:43:07;;;;;;;26.52;15.75;;;;;0.40;99081.00;;;;4899244;29;20045;-61
2023/12/03 08:45:33;;;;;;;24.73;15.27;;;;;0.40;99082.00;;;;4897663;29;20049;-62
2023/12/03 08:48:00;;;;;;;29.08;15.75;;;;;0.40;99077.00;;;;4899377;29;20045;-62
2023/12/03 08:50:29;;;;;;;28.27;16.05;;;;;0.50;99095.00;;;;4898186;29;20051;-62
2023/12/03 08:52:56;;;;;;;26.60;15.27;;;;;0.50;99088.00;;;;4899166;29;20037;-63
2023/12/03 08:55:23;;;;;;;32.10;17.52;;;;;0.50;99088.00;;;;4898547;29;20083;-62
2023/12/03 08:57:49;;;;;;;27.55;15.70;;;;;0.50;99093.00;;;;4898897;29;20051;-62
2023/12/03 09:00:17;;;;;;;27.80;15.20;;;;;0.60;99091.00;;;;4899153;29;20112;-62
2023/12/03 09:02:46;;;;;;;29.65;15.68;;;;;0.60;99105.00;;;;4898910;29;20406;-62
2023/12/03 09:05:13;;;;;;;29.10;15.38;;;;;0.60;99089.00;;;;4898718;29;20621;-63
2023/12/03 09:07:40;;;;;;;29.48;16.02;;;;;0.60;99100.00;;;;4898847;29;20088;-62
2023/12/03 09:10:07;;;;;;;26.92;15.48;;;;;0.70;99096.00;;;;4897728;29;20049;-63
2023/12/03 09:12:34;;;;;;;26.42;16.08;;;;;0.70;99093.00;;;;4898889;29;20048;-62
2023/12/03 09:15:01;;;;;;;29.73;15.45;;;;;0.70;99094.00;;;;4897343;29;20087;-62
2023/12/03 09:17:28;;;;;;;28.40;15.13;;;;;0.70;99103.00;;;;4898722;29;20502;-62
2023/12/03 09:19:54;;;;;;;28.90;16.25;;;;;0.70;99091.00;;;;4899083;29;20487;-60
2023/12/03 09:22:21;;;;;;;32.80;17.00;;;;;0.80;99080.00;;;;4898756;29;20132;-62
2023/12/03 09:24:48;;;;;;;31.10;16.13;;;;;0.90;99091.00;;;;4898112;29;20408;-62
2023/12/03 09:27:15;;;;;;;34.30;16.92;;;;;0.90;99094.00;;;;4898613;29;20127;-61
2023/12/03 09:29:42;;;;;;;30.52;16.67;;;;;0.80;99091.00;;;;4898463;29;20056;-61
2023/12/03 09:32:09;;;;;;;26.27;15.88;;;;;0.90;99097.00;;;;4898532;29;20044;-60
2023/12/03 09:34:35;;;;;;;31.73;17.10;;;;;1.00;99093.00;;;;4897933;29;20054;-62
2023/12/03 09:37:02;;;;;;;25.48;14.88;;;;;1.00;99087.00;;;;4898520;29;20495;-62
2023/12/03 09:39:29;;;;;;;30.90;17.08;;;;;1.10;99092.00;;;;4898356;29;20494;-61
2023/12/03 09:41:56;;;;;;;28.60;17.00;;;;;1.20;99083.00;;;;4898399;29;20494;-61
2023/12/03 09:44:39;;;;;;;26.13;15.88;;;;;1.20;99089.00;;;;4896652;29;20049;-60
2023/12/03 09:47:07;;;;;;;26.98;15.10;;;;;1.30;99090.00;;;;4896939;29;20052;-62
2023/12/03 09:49:37;;;;;;;27.30;15.75;;;;;1.30;99080.00;;;;4897135;29;20072;-62
2023/12/03 09:52:06;;;;;;;26.83;15.00;;;;;1.30;99087.00;;;;4896875;29;20050;-61
2023/12/03 09:54:33;;;;;;;29.83;15.63;;;;;1.40;99086.00;;;;4897645;29;20076;-61
2023/12/03 09:57:03;;;;;;;27.63;15.05;;;;;1.50;99078.00;;;;4896928;29;20045;-62
2023/12/03 09:59:33;;;;;;;27.67;16.17;;;;;1.50;99075.00;;;;4897063;29;20097;-61
2023/12/03 10:02:01;;;;;;;26.98;15.70;;;;;1.60;99075.00;;;;4881294;29;20049;-60
2023/12/03 10:04:27;;;;;;;26.30;15.23;;;;;1.70;99068.00;;;;4897360;29;20064;-61
2023/12/03 10:06:58;;;;;;;26.10;14.82;;;;;1.80;99071.00;;;;4896894;29;20048;-62
2023/12/03 10:09:25;;;;;;;27.48;14.40;;;;;1.80;99081.00;;;;4896174;29;20506;-61
2023/12/03 10:11:55;;;;;;;25.42;15.55;;;;;1.80;99067.00;;;;4897899;29;20044;-60
2023/12/03 10:14:22;;;;;;;26.02;14.55;;;;;1.80;99075.00;;;;4897090;29;20052;-60
2023/12/03 10:16:50;;;;;;;24.85;14.73;;;;;1.80;99070.00;;;;4897503;29;20116;-60
2023/12/03 10:19:27;;;;;;;27.75;15.05;;;;;2.00;99072.00;;;;4896553;29;20064;-61
2023/12/03 10:21:56;;;;;;;26.42;15.80;;;;;2.10;99081.00;;;;4896224;29;20402;-61
2023/12/03 10:24:22;;;;;;;31.63;17.38;;;;;2.10;99074.00;;;;4880352;29;20061;-62
2023/12/03 10:26:53;;;;;;;27.25;17.17;;;;;2.20;99076.00;;;;4897377;29;20048;-62
2023/12/03 10:29:20;;;;;;;40.88;21.73;;;;;2.30;99074.00;;;;4896194;29;20087;-62
2023/12/03 10:31:51;;;;;;;28.70;16.17;;;;;2.30;99082.00;;;;4896258;29;20498;-62
2023/12/03 10:34:19;;;;;;;36.25;19.30;;;;;2.40;99076.00;;;;4897071;29;20451;-62
2023/12/03 10:36:47;;;;;;;25.63;16.00;;;;;2.40;99073.00;;;;4896219;29;20044;-64
2023/12/03 10:39:17;;;;;;;26.33;14.90;;;;;2.50;99072.00;;;;4897455;29;20052;-63
2023/12/03 10:41:46;;;;;;;24.20;14.63;;;;;2.50;99064.00;;;;4897387;29;20052;-64
2023/12/03 10:44:21;;;;;;;24.98;14.85;;;;;2.50;99062.00;;;;4896898;29;20092;-65
2023/12/03 10:46:48;;;;;;;26.00;14.98;;;;;2.50;99064.00;;;;4897598;29;20510;-63
2023/12/03 10:49:15;;;;;;;25.25;15.15;;;;;2.50;99056.00;;;;4897555;29;20498;-67
2023/12/03 10:51:44;;;;;;;25.42;15.13;;;;;2.60;99057.00;;;;4897499;29;20053;-64
2023/12/03 10:54:11;;;;;;;26.55;14.07;;;;;2.60;99051.00;;;;4897227;29;20047;-64
2023/12/03 10:56:37;;;;;;;25.00;14.60;;;;;2.70;99051.00;;;;4896929;29;20451;-64
2023/12/03 10:59:19;;;;;;;25.13;15.07;;;;;2.70;99052.00;;;;4897139;29;20049;-63
2023/12/03 11:01:48;;;;;;;24.85;14.77;;;;;2.80;99054.00;;;;4895698;29;20151;-64
2023/12/03 11:04:38;;;;;;;24.73;15.18;;;;;2.80;99056.00;;;;4896494;29;20067;-64
2023/12/03 11:07:09;;;;;;;23.67;14.38;;;;;2.80;99043.00;;;;4895337;29;20135;-63
2023/12/03 11:09:38;;;;;;;23.63;14.25;;;;;2.80;99043.00;;;;4896848;29;20055;-62
2023/12/03 11:12:08;;;;;;;24.27;14.38;;;;;2.80;99042.00;;;;4896903;29;20490;-63
2023/12/03 11:14:36;;;;;;;22.83;14.88;;;;;2.90;99033.00;;;;4896432;29;20127;-65
2023/12/03 11:17:14;;;;;;;20.42;12.98;;;;;2.90;99041.00;;;;4896711;29;20477;-65
2023/12/03 11:19:45;;;;;;;24.77;14.93;;;;;3.00;99033.00;;;;4895618;29;20053;-64
2023/12/03 11:22:34;;;;;;;23.38;14.13;;;;;3.10;99032.00;;;;4896841;29;20045;-63
2023/12/03 11:25:11;;;;;;;21.60;13.13;;;;;3.10;99031.00;;;;4900187;29;20108;-63
2023/12/03 11:27:42;;;;;;;23.77;13.40;;;;;3.20;99030.00;;;;4900781;29;20064;-64
2023/12/03 11:30:10;;;;;;;24.50;14.75;;;;;3.20;99027.00;;;;4901088;29;20104;-63
2023/12/03 11:32:38;;;;;;;28.38;16.85;;;;;3.20;99017.00;;;;4901762;29;20044;-64
2023/12/03 11:35:17;;;;;;;26.00;14.88;;;;;3.20;99022.00;;;;4900005;29;20533;-64
2023/12/03 11:37:49;;;;;;;24.27;14.40;;;;;3.30;99024.00;;;;4900945;29;20048;-64
2023/12/03 11:40:19;;;;;;;20.85;12.93;;;;;3.30;99021.00;;;;4900206;29;20413;-64
2023/12/03 11:42:48;;;;;;;20.95;12.77;;;;;3.30;99026.00;;;;4900336;29;20060;-63
2023/12/03 11:45:21;;;;;;;24.65;14.32;;;;;3.30;99025.00;;;;4883889;29;20051;-65
2023/12/03 11:48:06;;;;;;;29.17;16.02;;;;;3.30;99016.00;;;;4900889;29;20558;-62
2023/12/03 11:50:35;;;;;;;22.58;13.48;;;;;3.40;99017.00;;;;4900473;29;20048;-64
2023/12/03 11:53:04;;;;;;;24.52;14.25;;;;;3.50;99011.00;;;;4899219;29;20060;-64
2023/12/03 11:55:34;;;;;;;23.58;13.18;;;;;3.60;99006.00;;;;4898847;29;20147;-61
2023/12/03 11:58:02;;;;;;;20.05;12.82;;;;;3.50;99010.00;;;;4900264;29;20064;-64
2023/12/03 12:00:31;;;;;;;53.47;24.70;;;;;3.60;99019.00;;;;4900350;29;20044;-62
2023/12/03 12:02:59;;;;;;;83.57;38.90;;;;;3.60;99002.00;;;;4899975;29;20040;-63